createdAt,value
2023-01-19T00:01:42.637Z,94403.06
2023-01-19T00:04:10.271Z,94404.03
2023-01-19T00:06:37.853Z,94413.59
2023-01-19T00:09:05.495Z,94407.31
2023-01-19T00:11:33.105Z,94409.84
2023-01-19T00:14:02.583Z,94412.13
2023-01-19T00:16:30.219Z,94408.50
2023-01-19T00:18:58.556Z,94419.09
2023-01-19T00:21:27.239Z,94418.56
2023-01-19T00:23:54.904Z,94421.84
2023-01-19T00:26:23.074Z,94420.88
2023-01-19T00:28:50.990Z,94418.63
2023-01-19T00:31:21.754Z,94419.97
2023-01-19T00:33:51.442Z,94420.84
2023-01-19T00:36:20.143Z,94423.63
2023-01-19T00:38:48.081Z,94426.41
2023-01-19T00:41:15.689Z,94424.31
2023-01-19T00:43:42.707Z,94428.78
2023-01-19T00:46:10.444Z,94433.97
2023-01-19T00:48:39.714Z,94431.31
2023-01-19T00:51:07.323Z,94436.56
2023-01-19T00:53:35.863Z,94440.16
2023-01-19T00:56:03.449Z,94435.78
2023-01-19T00:58:31.792Z,94429.50
2023-01-19T01:01:03.569Z,94429.38
2023-01-19T01:03:31.773Z,94437.22
2023-01-19T01:06:00.764Z,94441.78
2023-01-19T01:08:29.614Z,94446.16
2023-01-19T01:10:58.025Z,94446.63
2023-01-19T01:13:27.914Z,94449.22
2023-01-19T01:15:57.594Z,94454.59
2023-01-19T01:18:26.328Z,94455.25
2023-01-19T01:20:56.066Z,94462.78
2023-01-19T01:23:26.413Z,94465.16
2023-01-19T01:25:54.040Z,94468.28
2023-01-19T01:28:22.105Z,94467.72
2023-01-19T01:30:54.100Z,94467.81
2023-01-19T01:33:41.158Z,94469.84
2023-01-19T01:36:11.129Z,94474.69
2023-01-19T01:38:40.730Z,94477.03
2023-01-19T01:41:09.051Z,94472.91
2023-01-19T01:43:45.600Z,94481.19
2023-01-19T01:46:15.382Z,94484.16
2023-01-19T01:48:48.415Z,94478.44
2023-01-19T01:51:27.483Z,94486.22
2023-01-19T01:54:06.745Z,94492.38
2023-01-19T01:56:36.773Z,94493.63
2023-01-19T01:59:08.596Z,94493.09
2023-01-19T02:01:55.429Z,94504.44
2023-01-19T02:04:24.653Z,94500.88
2023-01-19T02:07:10.064Z,94495.41
2023-01-19T02:09:57.099Z,94503.19
2023-01-19T02:12:43.775Z,94496.34
2023-01-19T02:15:17.678Z,94499.66
2023-01-19T02:17:45.511Z,94494.47
2023-01-19T02:20:14.772Z,94492.84
2023-01-19T02:22:48.650Z,94495.78
2023-01-19T02:25:20.577Z,94500.72
2023-01-19T02:27:49.014Z,94500.47
2023-01-19T02:30:18.334Z,94507.69
2023-01-19T02:32:46.856Z,94517.91
2023-01-19T02:35:15.275Z,94512.53
2023-01-19T02:37:44.846Z,94516.09
2023-01-19T02:40:15.233Z,94509.28
2023-01-19T02:42:47.453Z,94510.09
2023-01-19T02:45:18.494Z,94511.72
2023-01-19T02:47:49.229Z,94509.47
2023-01-19T02:50:41.832Z,94514.97
2023-01-19T02:53:29.612Z,94510.59
2023-01-19T02:56:05.090Z,94511.72
2023-01-19T02:58:41.571Z,94515.72
2023-01-19T03:01:20.893Z,94523.72
2023-01-19T03:03:55.793Z,94526.16
2023-01-19T03:06:35.458Z,94528.84
2023-01-19T03:09:09.491Z,94522.19
2023-01-19T03:11:42.855Z,94519.34
2023-01-19T03:14:15.849Z,94517.25
2023-01-19T03:16:48.827Z,94513.13
2023-01-19T03:19:21.330Z,94519.69
2023-01-19T03:21:53.106Z,94516.00
2023-01-19T03:24:23.844Z,94520.16
2023-01-19T03:26:59.044Z,94519.47
2023-01-19T03:29:34.741Z,94520.00
2023-01-19T03:32:07.341Z,94521.13
2023-01-19T03:34:36.006Z,94520.56
2023-01-19T03:37:06.025Z,94520.88
2023-01-19T03:39:34.963Z,94518.94
2023-01-19T03:42:06.725Z,94522.88
2023-01-19T03:44:38.692Z,94533.09
2023-01-19T03:47:12.704Z,94531.84
2023-01-19T03:49:42.976Z,94527.41
2023-01-19T03:52:12.902Z,94526.56
2023-01-19T03:54:42.070Z,94528.28
2023-01-19T03:57:10.021Z,94534.44
2023-01-19T03:59:38.970Z,94531.47
2023-01-19T04:02:07.037Z,94527.19
2023-01-19T04:04:34.680Z,94532.63
2023-01-19T04:07:02.540Z,94536.97
2023-01-19T04:09:30.263Z,94542.78
2023-01-19T04:11:58.507Z,94544.78
2023-01-19T04:14:26.079Z,94542.25
2023-01-19T04:16:55.948Z,94541.13
2023-01-19T04:19:23.726Z,94540.56
2023-01-19T04:21:52.238Z,94537.75
2023-01-19T04:24:19.885Z,94546.75
2023-01-19T04:26:47.544Z,94546.38
2023-01-19T04:29:15.266Z,94546.09
2023-01-19T04:31:43.138Z,94542.28
2023-01-19T04:34:12.072Z,94546.16
2023-01-19T04:36:39.694Z,94543.41
2023-01-19T04:39:08.939Z,94546.38
2023-01-19T04:41:36.811Z,94547.34
2023-01-19T04:44:04.867Z,94551.59
2023-01-19T04:46:32.670Z,94547.00
2023-01-19T04:49:00.356Z,94546.72
2023-01-19T04:51:29.667Z,94545.09
2023-01-19T04:53:57.766Z,94543.56
2023-01-19T04:56:25.932Z,94546.31
2023-01-19T04:58:53.532Z,94549.84
2023-01-19T05:01:21.971Z,94555.00
2023-01-19T05:03:49.668Z,94548.75
2023-01-19T05:06:17.748Z,94547.50
2023-01-19T05:08:46.679Z,94550.22
2023-01-19T05:11:14.782Z,94546.88
2023-01-19T05:13:42.375Z,94542.91
2023-01-19T05:16:10.409Z,94554.06
2023-01-19T05:18:38.781Z,94551.59
2023-01-19T05:21:07.805Z,94550.63
2023-01-19T05:23:35.416Z,94544.66
2023-01-19T05:26:04.992Z,94558.38
2023-01-19T05:28:34.324Z,94563.22
2023-01-19T05:31:02.031Z,94560.22
2023-01-19T05:33:29.957Z,94560.72
2023-01-19T05:35:57.570Z,94561.13
2023-01-19T05:38:34.614Z,94557.13
2023-01-19T05:41:04.238Z,94563.66
2023-01-19T05:43:32.660Z,94563.22
2023-01-19T05:46:00.245Z,94556.28
2023-01-19T05:48:28.528Z,94564.59
2023-01-19T05:50:59.094Z,94576.22
2023-01-19T05:53:27.707Z,94574.50
2023-01-19T05:56:00.561Z,94578.13
2023-01-19T05:58:30.287Z,94580.59
2023-01-19T06:00:58.617Z,94577.59
2023-01-19T06:03:26.611Z,94582.94
2023-01-19T06:05:54.218Z,94581.63
2023-01-19T06:08:22.198Z,94581.50
2023-01-19T06:10:49.789Z,94577.16
2023-01-19T06:13:18.132Z,94589.69
2023-01-19T06:15:47.342Z,94581.78
2023-01-19T06:18:16.097Z,94588.56
2023-01-19T06:20:43.892Z,94598.06
2023-01-19T06:23:12.389Z,94600.22
2023-01-19T06:25:39.973Z,94602.94
2023-01-19T06:28:08.386Z,94603.22
2023-01-19T06:30:36.024Z,94604.59
2023-01-19T06:33:05.458Z,94619.06
2023-01-19T06:35:33.033Z,94625.06
2023-01-19T06:38:00.915Z,94615.81
2023-01-19T06:40:28.762Z,94621.94
2023-01-19T06:42:56.959Z,94619.66
2023-01-19T06:45:24.525Z,94615.31
2023-01-19T06:47:52.817Z,94622.81
2023-01-19T06:50:22.631Z,94620.91
2023-01-19T06:52:50.928Z,94622.69
2023-01-19T06:55:18.854Z,94620.22
2023-01-19T06:57:46.575Z,94625.25
2023-01-19T07:00:15.475Z,94629.69
2023-01-19T07:02:44.005Z,94632.03
2023-01-19T07:05:14.762Z,94641.63
2023-01-19T07:07:44.888Z,94641.88
2023-01-19T07:10:15.608Z,94645.16
2023-01-19T07:12:45.033Z,94654.44
2023-01-19T07:15:12.878Z,94660.94
2023-01-19T07:17:41.599Z,94662.84
2023-01-19T07:20:11.189Z,94657.53
2023-01-19T07:22:38.877Z,94663.84
2023-01-19T07:25:09.093Z,94666.69
2023-01-19T07:27:37.203Z,94664.69
2023-01-19T07:30:06.699Z,94660.97
2023-01-19T07:32:34.622Z,94668.91
2023-01-19T07:35:02.646Z,94661.84
2023-01-19T07:37:30.337Z,94664.56
2023-01-19T07:39:57.954Z,94658.84
2023-01-19T07:42:27.051Z,94667.28
2023-01-19T07:44:54.692Z,94673.56
2023-01-19T07:47:22.731Z,94678.59
2023-01-19T07:49:50.340Z,94673.97
2023-01-19T07:52:17.908Z,94680.06
2023-01-19T07:54:45.837Z,94682.31
2023-01-19T07:57:13.421Z,94678.66
2023-01-19T07:59:42.591Z,94689.00
2023-01-19T08:02:11.173Z,94692.69
2023-01-19T08:04:39.341Z,94687.66
2023-01-19T08:07:07.364Z,94697.72
2023-01-19T08:09:34.963Z,94700.84
2023-01-19T08:12:02.835Z,94698.00
2023-01-19T08:14:30.889Z,94707.13
2023-01-19T08:17:01.559Z,94706.59
2023-01-19T08:19:29.602Z,94705.78
2023-01-19T08:21:58.814Z,94710.81
2023-01-19T08:24:28.568Z,94703.31
2023-01-19T08:27:00.268Z,94699.78
2023-01-19T08:29:30.925Z,94703.59
2023-01-19T08:32:01.137Z,94703.03
2023-01-19T08:34:32.729Z,94708.22
2023-01-19T08:37:00.514Z,94697.84
2023-01-19T08:39:28.352Z,94701.22
2023-01-19T08:41:56.004Z,94697.25
2023-01-19T08:44:24.531Z,94708.97
2023-01-19T08:46:52.139Z,94721.50
2023-01-19T08:49:19.946Z,94709.91
2023-01-19T08:51:49.085Z,94715.91
2023-01-19T08:54:18.587Z,94713.09
2023-01-19T08:56:46.405Z,94716.41
2023-01-19T08:59:14.663Z,94711.69
2023-01-19T09:01:42.467Z,94705.97
2023-01-19T09:04:10.149Z,94703.25
2023-01-19T09:06:37.800Z,94696.44
2023-01-19T09:09:06.788Z,94703.06
2023-01-19T09:11:35.284Z,94692.41
2023-01-19T09:14:04.189Z,94698.94
2023-01-19T09:16:32.333Z,94705.13
2023-01-19T09:18:59.903Z,94702.44
2023-01-19T09:21:28.958Z,94700.63
2023-01-19T09:23:57.686Z,94704.94
2023-01-19T09:26:27.395Z,94705.53
2023-01-19T09:28:54.974Z,94705.19
2023-01-19T09:31:23.962Z,94714.44
2023-01-19T09:33:51.645Z,94703.50
2023-01-19T09:36:19.414Z,94703.44
2023-01-19T09:38:47.009Z,94696.69
2023-01-19T09:41:22.206Z,94703.84
2023-01-19T09:43:55.848Z,94699.03
2023-01-19T09:46:31.093Z,94696.06
2023-01-19T09:49:04.752Z,94698.28
2023-01-19T09:51:37.260Z,94694.81
2023-01-19T09:54:12.151Z,94697.03
2023-01-19T09:56:40.991Z,94695.38
2023-01-19T09:59:21.110Z,94702.88
2023-01-19T10:02:11.184Z,94697.00
2023-01-19T10:04:41.667Z,94682.53
2023-01-19T10:07:24.743Z,94688.81
2023-01-19T10:10:06.975Z,94691.88
2023-01-19T10:12:45.684Z,94695.50
2023-01-19T10:15:26.088Z,94689.00
2023-01-19T10:18:04.921Z,94691.44
2023-01-19T10:20:39.947Z,94701.22
2023-01-19T10:23:22.819Z,94693.88
2023-01-19T10:25:50.799Z,94693.88
2023-01-19T10:28:24.865Z,94692.66
2023-01-19T10:30:55.977Z,94687.00
2023-01-19T10:33:23.778Z,94683.78
2023-01-19T10:35:52.352Z,94682.13
2023-01-19T10:38:22.208Z,94683.16
2023-01-19T10:40:57.448Z,94691.94
2023-01-19T10:43:39.733Z,94689.03
2023-01-19T10:46:17.349Z,94696.66
2023-01-19T10:48:45.802Z,94695.75
2023-01-19T10:51:13.533Z,94697.66
2023-01-19T10:53:43.771Z,94694.66
2023-01-19T10:56:17.746Z,94685.53
2023-01-19T10:58:45.479Z,94677.66
2023-01-19T11:01:20.579Z,94671.16
2023-01-19T11:03:48.617Z,94676.75
2023-01-19T11:06:28.650Z,94670.00
2023-01-19T11:09:12.597Z,94672.78
2023-01-19T11:11:45.384Z,94671.78
2023-01-19T11:14:15.123Z,94666.34
2023-01-19T11:16:48.961Z,94667.59
2023-01-19T11:19:21.603Z,94660.06
2023-01-19T11:21:49.702Z,94673.19
2023-01-19T11:24:18.267Z,94676.47
2023-01-19T11:26:47.949Z,94679.81
2023-01-19T11:29:20.047Z,94683.34
2023-01-19T11:31:50.172Z,94681.84
2023-01-19T11:34:33.405Z,94667.97
2023-01-19T11:37:04.045Z,94664.13
2023-01-19T11:39:33.803Z,94675.44
2023-01-19T11:42:03.910Z,94653.09
2023-01-19T11:44:34.820Z,94659.41
2023-01-19T11:47:06.957Z,94652.91
2023-01-19T11:49:43.811Z,94650.69
2023-01-19T11:52:23.536Z,94646.47
2023-01-19T11:54:58.756Z,94642.22
2023-01-19T11:57:26.756Z,94653.13
2023-01-19T11:59:54.821Z,94657.56
2023-01-19T12:02:29.529Z,94657.50
2023-01-19T12:05:02.141Z,94667.41
2023-01-19T12:07:35.132Z,94665.44
2023-01-19T12:10:14.581Z,94669.06
2023-01-19T12:12:42.495Z,94673.28
2023-01-19T12:15:22.406Z,94679.47
2023-01-19T12:17:54.519Z,94675.88
2023-01-19T12:20:28.527Z,94663.34
2023-01-19T12:23:05.521Z,94668.75
2023-01-19T12:25:44.236Z,94669.38
2023-01-19T12:28:14.711Z,94668.41
2023-01-19T12:30:42.792Z,94663.19
2023-01-19T12:33:37.450Z,94656.00
2023-01-19T12:36:10.882Z,94656.34
2023-01-19T12:38:52.260Z,94661.38
2023-01-19T12:41:24.113Z,94669.09
2023-01-19T12:44:16.607Z,94667.25
2023-01-19T12:46:47.553Z,94667.09
2023-01-19T12:49:26.072Z,94658.59
2023-01-19T12:51:56.494Z,94661.66
2023-01-19T12:54:31.547Z,94665.88
2023-01-19T12:57:03.160Z,94672.94
2023-01-19T12:59:33.050Z,94671.94
2023-01-19T13:02:51.991Z,94665.13
2023-01-19T13:05:24.488Z,94668.94
2023-01-19T13:08:18.169Z,94661.16
2023-01-19T13:11:25.813Z,94668.41
2023-01-19T13:14:36.113Z,94662.22
2023-01-19T13:17:22.336Z,94661.91
2023-01-19T13:20:03.348Z,94662.72
2023-01-19T13:23:16.314Z,94657.66
2023-01-19T13:25:50.281Z,94661.56
2023-01-19T13:28:21.049Z,94664.16
2023-01-19T13:30:56.522Z,94664.63
2023-01-19T13:33:27.771Z,94671.00
2023-01-19T13:35:58.618Z,94670.63
2023-01-19T13:38:30.074Z,94670.63
2023-01-19T13:41:01.768Z,94677.28
2023-01-19T13:43:33.817Z,94671.59
2023-01-19T13:46:02.094Z,94672.69
2023-01-19T13:48:32.103Z,94671.59
2023-01-19T13:51:02.498Z,94674.34
2023-01-19T13:53:32.852Z,94672.53
2023-01-19T13:56:28.864Z,94679.66
2023-01-19T13:59:01.130Z,94683.75
2023-01-19T14:01:30.241Z,94673.81
2023-01-19T14:03:58.273Z,94677.75
2023-01-19T14:06:34.473Z,94677.13
2023-01-19T14:09:24.269Z,94676.41
2023-01-19T14:12:14.876Z,94678.56
2023-01-19T14:14:43.271Z,94680.34
2023-01-19T14:17:25.692Z,94678.03
2023-01-19T14:19:55.256Z,94676.78
2023-01-19T14:22:37.908Z,94676.78
2023-01-19T14:25:29.866Z,94671.25
2023-01-19T14:28:39.190Z,94670.59
2023-01-19T14:31:20.714Z,94666.19
2023-01-19T14:33:49.875Z,94663.75
2023-01-19T14:36:30.139Z,94686.13
2023-01-19T14:39:00.189Z,94682.09
2023-01-19T14:41:41.125Z,94682.81
2023-01-19T14:44:10.973Z,94687.63
2023-01-19T14:46:39.416Z,94688.19
2023-01-19T14:49:07.645Z,94683.97
2023-01-19T14:51:35.565Z,94684.16
2023-01-19T14:54:04.859Z,94692.22
2023-01-19T14:56:34.295Z,94682.22
2023-01-19T14:59:03.276Z,94689.25
2023-01-19T15:01:32.217Z,94691.50
2023-01-19T15:03:59.889Z,94686.09
2023-01-19T15:06:28.079Z,94684.06
2023-01-19T15:08:56.168Z,94680.59
2023-01-19T15:11:28.234Z,94684.47
2023-01-19T15:13:57.187Z,94686.94
2023-01-19T15:16:26.947Z,94683.16
2023-01-19T15:18:54.569Z,94680.00
2023-01-19T15:21:26.924Z,94686.13
2023-01-19T15:23:55.442Z,94685.50
2023-01-19T15:26:25.816Z,94687.81
2023-01-19T15:28:54.659Z,94677.03
2023-01-19T15:31:25.821Z,94685.84
2023-01-19T15:33:53.542Z,94686.78
2023-01-19T15:36:24.568Z,94681.19
2023-01-19T15:38:52.267Z,94681.53
2023-01-19T15:41:25.281Z,94688.34
2023-01-19T15:43:53.608Z,94690.88
2023-01-19T15:46:25.474Z,94688.66
2023-01-19T15:48:54.199Z,94689.97
2023-01-19T15:51:25.969Z,94694.16
2023-01-19T15:53:54.727Z,94694.06
2023-01-19T15:56:24.731Z,94691.28
2023-01-19T15:58:53.008Z,94691.06
2023-01-19T16:01:23.910Z,94693.00
2023-01-19T16:03:51.812Z,94701.25
2023-01-19T16:06:20.137Z,94698.88
2023-01-19T16:08:47.729Z,94706.75
2023-01-19T16:11:18.751Z,94702.88
2023-01-19T16:13:47.553Z,94697.59
2023-01-19T16:16:18.222Z,94704.44
2023-01-19T16:18:47.525Z,94702.28
2023-01-19T16:21:15.508Z,94706.59
2023-01-19T16:23:43.103Z,94702.69
2023-01-19T16:26:25.279Z,94707.41
2023-01-19T16:28:52.958Z,94709.50
2023-01-19T16:31:20.956Z,94709.50
2023-01-19T16:33:50.071Z,94712.25
2023-01-19T16:36:23.537Z,94714.03
2023-01-19T16:38:51.250Z,94707.88
2023-01-19T16:41:19.916Z,94718.03
2023-01-19T16:43:51.947Z,94714.09
2023-01-19T16:46:22.825Z,94716.41
2023-01-19T16:48:52.636Z,94716.47
2023-01-19T16:51:21.165Z,94725.25
2023-01-19T16:53:50.680Z,94714.69
2023-01-19T16:56:18.955Z,94715.94
2023-01-19T16:58:46.862Z,94718.19
2023-01-19T17:01:18.245Z,94713.56
2023-01-19T17:03:47.497Z,94715.03
2023-01-19T17:06:20.426Z,94726.41
2023-01-19T17:08:48.434Z,94715.19
2023-01-19T17:11:20.566Z,94718.25
2023-01-19T17:13:48.606Z,94713.88
2023-01-19T17:16:16.689Z,94717.94
2023-01-19T17:18:44.312Z,94724.41
2023-01-19T17:21:12.477Z,94713.06
2023-01-19T17:23:45.722Z,94723.28
2023-01-19T17:26:13.479Z,94724.09
2023-01-19T17:28:41.807Z,94712.25
2023-01-19T17:31:11.789Z,94715.00
2023-01-19T17:33:40.921Z,94712.31
2023-01-19T17:36:11.300Z,94712.31
2023-01-19T17:38:39.649Z,94711.09
2023-01-19T17:41:14.601Z,94717.69
2023-01-19T17:43:42.710Z,94721.69
2023-01-19T17:46:10.378Z,94715.69
2023-01-19T17:48:38.734Z,94723.38
2023-01-19T17:51:09.327Z,94713.16
2023-01-19T17:53:38.548Z,94719.38
2023-01-19T17:56:07.446Z,94717.53
2023-01-19T17:58:37.574Z,94719.06
2023-01-19T18:01:09.937Z,94721.72
2023-01-19T18:03:38.820Z,94725.53
2023-01-19T18:06:06.881Z,94722.41
2023-01-19T18:08:36.620Z,94721.09
2023-01-19T18:11:04.688Z,94723.56
2023-01-19T18:13:33.243Z,94730.66
2023-01-19T18:16:03.665Z,94727.13
2023-01-19T18:18:32.272Z,94728.50
2023-01-19T18:21:00.812Z,94732.06
2023-01-19T18:23:29.747Z,94723.63
2023-01-19T18:26:00.370Z,94723.13
2023-01-19T18:28:29.601Z,94718.78
2023-01-19T18:30:57.428Z,94722.63
2023-01-19T18:33:27.831Z,94722.88
2023-01-19T18:35:55.654Z,94710.88
2023-01-19T18:38:23.311Z,94725.75
2023-01-19T18:41:00.281Z,94716.06
2023-01-19T18:43:27.899Z,94722.88
2023-01-19T18:45:55.606Z,94717.44
2023-01-19T18:48:23.652Z,94723.56
2023-01-19T18:50:52.734Z,94719.56
2023-01-19T18:53:20.881Z,94722.81
2023-01-19T18:55:52.895Z,94716.69
2023-01-19T18:58:23.293Z,94720.94
2023-01-19T19:00:51.745Z,94724.97
2023-01-19T19:03:19.570Z,94726.06
2023-01-19T19:05:47.305Z,94732.97
2023-01-19T19:08:16.545Z,94731.88
2023-01-19T19:10:45.108Z,94719.41
2023-01-19T19:13:13.323Z,94715.91
2023-01-19T19:15:40.981Z,94717.09
2023-01-19T19:18:11.340Z,94726.75
2023-01-19T19:20:39.230Z,94723.69
2023-01-19T19:23:06.926Z,94722.63
2023-01-19T19:25:35.862Z,94722.84
2023-01-19T19:28:03.732Z,94731.16
2023-01-19T19:30:32.850Z,94724.19
2023-01-19T19:33:01.099Z,94727.84
2023-01-19T19:35:28.783Z,94732.59
2023-01-19T19:37:57.561Z,94730.66
2023-01-19T19:40:26.189Z,94734.22
2023-01-19T19:42:58.307Z,94727.72
2023-01-19T19:51:24.056Z,94735.91
2023-01-19T19:53:52.890Z,94738.44
2023-01-19T19:56:22.067Z,94720.69
2023-01-19T19:58:50.396Z,94741.84
2023-01-19T20:01:19.500Z,94731.47
2023-01-19T20:03:49.239Z,94730.88
2023-01-19T20:06:21.261Z,94736.88
2023-01-19T20:08:50.021Z,94734.00
2023-01-19T20:11:20.433Z,94730.97
2023-01-19T20:13:48.910Z,94738.75
2023-01-19T20:16:18.411Z,94737.78
2023-01-19T20:18:51.098Z,94738.38
2023-01-19T20:21:22.670Z,94740.97
2023-01-19T20:23:53.214Z,94735.91
2023-01-19T20:26:24.972Z,94737.31
2023-01-19T20:28:53.013Z,94737.97
2023-01-19T20:31:22.413Z,94732.78
2023-01-19T20:33:52.258Z,94727.19
2023-01-19T20:36:22.315Z,94733.34
2023-01-19T20:38:50.186Z,94731.47
2023-01-19T20:41:18.835Z,94731.16
2023-01-19T20:43:46.625Z,94722.41
2023-01-19T20:46:15.100Z,94725.97
2023-01-19T20:48:43.148Z,94730.19
2023-01-19T20:51:14.528Z,94731.16
2023-01-19T20:53:43.483Z,94726.94
2023-01-19T20:56:13.325Z,94724.34
2023-01-19T20:58:41.778Z,94728.41
2023-01-19T21:01:14.366Z,94728.56
2023-01-19T21:03:42.864Z,94731.00
2023-01-19T21:06:11.180Z,94732.50
2023-01-19T21:08:38.958Z,94728.13
2023-01-19T21:11:08.879Z,94731.41
2023-01-19T21:13:37.111Z,94732.22
2023-01-19T21:16:05.794Z,94727.84
2023-01-19T21:18:33.491Z,94728.69
2023-01-19T21:21:01.985Z,94731.94
2023-01-19T21:23:29.603Z,94732.75
2023-01-19T21:25:59.231Z,94731.63
2023-01-19T21:28:29.250Z,94731.63
2023-01-19T21:30:57.754Z,94738.75
2023-01-19T21:33:25.723Z,94732.59
2023-01-19T21:35:55.033Z,94733.72
2023-01-19T21:38:23.775Z,94736.06
2023-01-19T21:40:51.973Z,94733.31
2023-01-19T21:43:19.990Z,94730.59
2023-01-19T21:45:50.348Z,94734.94
2023-01-19T21:48:19.647Z,94740.28
2023-01-19T21:50:57.323Z,94737.03
2023-01-19T21:53:25.353Z,94744.50
2023-01-19T21:55:53.164Z,94741.25
2023-01-19T21:58:22.910Z,94738.50
2023-01-19T22:00:52.343Z,94734.94
2023-01-19T22:03:20.012Z,94737.41
2023-01-19T22:05:47.753Z,94750.25
2023-01-19T22:08:15.315Z,94744.91
2023-01-19T22:10:43.213Z,94744.09
2023-01-19T22:13:11.021Z,94749.28
2023-01-19T22:15:38.887Z,94748.16
2023-01-19T22:18:07.952Z,94755.94
2023-01-19T22:20:35.939Z,94754.03
2023-01-19T22:23:03.531Z,94764.41
2023-01-19T22:25:33.604Z,94761.69
2023-01-19T22:28:01.215Z,94763.31
2023-01-19T22:30:29.355Z,94765.22
2023-01-19T22:32:56.994Z,94761.69
2023-01-19T22:35:26.366Z,94766.88
2023-01-19T22:37:54.553Z,94761.97
2023-01-19T22:40:22.255Z,94768.66
2023-01-19T22:42:50.355Z,94766.88
2023-01-19T22:45:17.968Z,94762.34
2023-01-19T22:47:47.142Z,94766.06
2023-01-19T22:50:14.868Z,94771.91
2023-01-19T22:52:43.938Z,94768.22
2023-01-19T22:55:11.940Z,94773.41
2023-01-19T22:57:40.322Z,94777.63
2023-01-19T23:00:09.556Z,94774.22
2023-01-19T23:02:37.302Z,94778.06
2023-01-19T23:05:05.608Z,94780.94
2023-01-19T23:07:33.631Z,94784.22
2023-01-19T23:10:02.782Z,94788.72
2023-01-19T23:12:30.341Z,94782.19
2023-01-19T23:14:58.765Z,94773.75
2023-01-19T23:17:26.358Z,94784.22
2023-01-19T23:19:54.377Z,94781.53
2023-01-19T23:22:22.807Z,94780.81
2023-01-19T23:24:50.378Z,94774.00
2023-01-19T23:27:19.846Z,94770.59
2023-01-19T23:29:47.621Z,94765.25
2023-01-19T23:32:15.893Z,94777.41
2023-01-19T23:34:43.810Z,94775.94
2023-01-19T23:37:11.940Z,94778.81
2023-01-19T23:39:39.531Z,94776.22
2023-01-19T23:42:08.419Z,94771.03
2023-01-19T23:44:37.365Z,94773.91
2023-01-19T23:47:05.045Z,94780.75
2023-01-19T23:49:32.644Z,94780.75
2023-01-19T23:52:00.915Z,94778.16
2023-01-19T23:54:28.662Z,94778.22
2023-01-19T23:56:56.567Z,94781.16
2023-01-19T23:59:24.148Z,94789.38
